Weather at Mytilene International Airport

Public forecast

Using degrees Celsius for public forecast. Weather courtesy of forecast.io.

Current aviation weather report (METAR) for Mytilene International Airport

Report is more than 6 hours old.

2022/11/14 15:20 (retrieved 2 years ago)

LGMT 141520Z 30005KT CAVOK 16/09 Q1020

Closest aviation forecast (TAF) to Mytilene International Airport

Forecast is more than 12 hours old.

Closest forecast is Adnan Menderes International Airport, 52.8 nm (97.9 km) SSE.

2023/02/22 18:03 (retrieved 1 year ago)

TAF LTBJ 221640Z 2218/2318 VRB02KT 7000 NSC BECMG 2222/2302 3200 BR SCT010 PROB40 2302/2306 0300 FG VV001 BECMG 2307/2310 CAVOK BECMG 2310/2312 FEW030 BECMG 2313/2315 CAVOK TEMPO 2313/2317 35012KT